Time;durP1;ratioP1;P1;durP2;ratioP2;P2;SDS_P1;SDS_P2;PMS_P1;PMS_P2;Temp;Humidity;BMP_temperature;BMP_pressure;BME280_temperature;BME280_humidity;BME280_pressure;Samples;Min_cycle;Max_cycle;Signal;HPM_P1;HPM_P2
2022/01/26 00:00:57;;;;;;;53.33;28.17;;;;;;;3.67;100.00;103340.16;5073758;28;20468;-36
2022/01/26 00:06:16;;;;;;;53.25;27.10;;;;;;;3.58;100.00;103329.41;5074333;28;20078;-32
2022/01/26 00:08:43;;;;;;;;;;;;;;;3.57;100.00;103334.09;5074337;28;20095;-32
2022/01/26 00:11:12;;;;;;;46.80;25.17;;;;;;;3.51;100.00;103320.19;5073265;28;19928;-34
2022/01/26 00:13:40;;;;;;;48.10;26.20;;;;;;;3.52;100.00;103325.50;5073765;28;20051;-32
2022/01/26 00:16:15;;;;;;;52.15;27.10;;;;;;;3.52;100.00;103314.47;5073649;28;20052;-30
2022/01/26 00:18:42;;;;;;;51.50;27.55;;;;;;;3.54;100.00;103312.38;5073257;28;20474;-31
2022/01/26 00:21:16;;;;;;;48.47;26.05;;;;;;;3.55;100.00;103314.09;5073636;28;20123;-32
2022/01/26 00:24:07;;;;;;;43.63;23.95;;;;;;;3.57;100.00;103314.75;5073160;28;20048;-31
2022/01/26 00:27:00;;;;;;;45.83;24.67;;;;;;;3.55;100.00;103308.56;5073872;28;20397;-32
2022/01/26 00:29:29;;;;;;;45.45;24.35;;;;;;;3.49;100.00;103314.84;5073317;28;20687;-30
2022/01/26 00:33:06;;;;;;;42.08;22.85;;;;;;;3.51;100.00;103306.38;5069422;28;20060;-31
2022/01/26 00:40:28;;;;;;;46.28;24.20;;;;;;;3.43;100.00;103286.09;5072784;28;20536;-37
2022/01/26 00:43:02;;;;;;;50.92;26.77;;;;;;;3.43;100.00;103285.25;5073748;28;20040;-31
2022/01/26 00:45:35;;;;;;;52.70;27.77;;;;;;;3.44;100.00;103281.44;5069631;28;20088;-33
2022/01/26 00:48:06;;;;;;;52.92;26.55;;;;;;;3.39;100.00;103273.78;5073588;28;20101;-34
2022/01/26 00:50:35;;;;;;;46.67;23.75;;;;;;;3.42;100.00;103280.78;5072662;28;20055;-33
2022/01/26 00:53:05;;;;;;;46.88;24.80;;;;;;;3.43;100.00;103279.72;5072399;28;20040;-33
2022/01/26 00:55:33;;;;;;;43.83;22.77;;;;;;;3.43;100.00;103280.59;5073220;28;20061;-32
2022/01/26 00:58:03;;;;;;;42.75;21.83;;;;;;;3.46;100.00;103287.63;5073509;28;20044;-31
2022/01/26 01:00:31;;;;;;;45.22;23.50;;;;;;;3.45;100.00;103283.16;5072027;28;20432;-34
2022/01/26 01:03:01;;;;;;;40.40;22.60;;;;;;;3.47;100.00;103289.34;5072925;28;20051;-30
2022/01/26 01:05:35;;;;;;;47.67;23.30;;;;;;;3.42;100.00;103294.56;5072821;28;20048;-33
2022/01/26 01:08:07;;;;;;;43.88;22.05;;;;;;;3.41;100.00;103279.06;5071444;28;20059;-31
2022/01/26 01:10:35;;;;;;;44.50;21.35;;;;;;;3.43;100.00;103283.34;5073098;28;20049;-31
2022/01/26 01:13:07;;;;;;;41.88;20.52;;;;;;;3.46;100.00;103279.34;5072030;28;20044;-32
2022/01/26 01:15:35;;;;;;;37.78;18.92;;;;;;;3.49;100.00;103283.63;5072792;28;20076;-30
2022/01/26 01:18:10;;;;;;;46.08;21.88;;;;;;;3.49;100.00;103276.22;5072525;28;20058;-33
2022/01/26 01:24:01;;;;;;;39.20;20.13;;;;;;;3.46;100.00;103255.38;5072530;28;20045;-29
2022/01/26 01:29:30;;;;;;;39.85;20.13;;;;;;;3.50;100.00;103242.03;5030072;28;20545;-30
2022/01/26 01:31:58;;;;;;;43.15;20.88;;;;;;;3.49;100.00;103256.03;5052559;28;20198;-33
2022/01/26 01:34:36;;;;;;;44.42;21.50;;;;;;;3.49;100.00;103256.88;5071627;28;20474;-33
2022/01/26 01:37:07;;;;;;;47.33;22.75;;;;;;;3.46;100.00;103251.75;5071335;28;20052;-31
2022/01/26 01:39:35;;;;;;;43.88;22.42;;;;;;;3.44;100.00;103242.81;5072345;28;20493;-30
2022/01/26 01:42:05;;;;;;;44.95;22.13;;;;;;;3.43;100.00;103219.88;5071495;28;20052;-33
2022/01/26 01:44:34;;;;;;;48.53;23.00;;;;;;;3.43;100.00;103221.78;5072083;28;20048;-31
2022/01/26 01:47:02;;;;;;;44.40;21.90;;;;;;;3.45;100.00;103227.97;5072288;28;20040;-30
2022/01/26 01:49:31;;;;;;;46.08;22.35;;;;;;;3.47;100.00;103223.09;5071261;28;20037;-30
2022/01/26 01:52:02;;;;;;;44.70;21.15;;;;;;;3.46;100.00;103222.25;5071418;28;20044;-30
2022/01/26 01:54:31;;;;;;;49.88;23.83;;;;;;;3.47;100.00;103236.91;5072087;28;20083;-32
2022/01/26 01:56:59;;;;;;;44.42;21.33;;;;;;;3.48;100.00;103249.66;5071084;28;20516;-32
2022/01/26 01:59:30;;;;;;;47.67;24.17;;;;;;;3.49;100.00;103256.03;5071481;28;20048;-30
2022/01/26 02:02:00;;;;;;;44.30;21.38;;;;;;;3.49;100.00;103240.31;5071700;28;20098;-29
2022/01/26 02:04:28;;;;;;;54.35;25.48;;;;;;;3.47;100.00;103237.75;5070915;28;20036;-30
2022/01/26 02:06:57;;;;;;;48.08;23.73;;;;;;;3.47;100.00;103243.28;5071720;28;20064;-31
2022/01/26 02:09:24;;;;;;;49.90;23.98;;;;;;;3.45;100.00;103234.34;5070977;28;20063;-32
2022/01/26 02:11:55;;;;;;;50.95;24.25;;;;;;;3.46;100.00;103225.00;5070351;28;20505;-32
2022/01/26 02:14:28;;;;;;;51.30;24.77;;;;;;;3.43;100.00;103217.09;5071291;28;20063;-33
2022/01/26 02:17:06;;;;;;;47.55;23.63;;;;;;;3.45;100.00;103208.63;5070915;28;20048;-33
2022/01/26 02:53:24;;;;;;;51.95;26.40;;;;;;;3.42;100.00;103209.03;5069408;28;20056;-36
2022/01/26 02:55:57;;;;;;;54.22;27.00;;;;;;;3.45;100.00;103206.72;5071074;28;20404;-30
2022/01/26 03:01:35;;;;;;;54.70;27.15;;;;;;;3.54;100.00;103201.09;5069275;28;20408;-30
2022/01/26 03:04:11;;;;;;;48.10;24.52;;;;;;;3.57;100.00;103212.63;5064022;28;20048;-30
2022/01/26 03:06:45;;;;;;;54.58;26.80;;;;;;;3.62;100.00;103218.38;5069706;28;20044;-31
2022/01/26 03:09:16;;;;;;;54.67;27.25;;;;;;;3.66;100.00;103213.34;5070986;28;20068;-32
2022/01/26 03:11:47;;;;;;;45.72;22.08;;;;;;;3.76;100.00;103222.16;5071372;28;20260;-32
2022/01/26 03:14:25;;;;;;;48.13;22.85;;;;;;;3.88;100.00;103208.69;5069842;28;20489;-32
2022/01/26 03:16:57;;;;;;;41.83;21.13;;;;;;;4.00;100.00;103207.94;5070737;28;20048;-35
2022/01/26 03:19:33;;;;;;;41.42;20.48;;;;;;;4.10;100.00;103213.16;5070662;28;20684;-30
2022/01/26 03:28:06;;;;;;;44.38;21.38;;;;;;;4.15;100.00;103208.75;5070813;28;20146;-31
2022/01/26 03:28:17;;;;;;;43.75;20.40;;;;;;;4.30;100.00;103244.56;5068709;28;20405;-34
2022/01/26 03:31:20;;;;;;;47.47;21.63;;;;;;;4.33;100.00;103249.72;5070624;28;20056;-30
2022/01/26 03:33:55;;;;;;;45.00;21.02;;;;;;;4.37;100.00;103239.13;5060793;28;20514;-31
2022/01/26 03:36:26;;;;;;;50.20;22.42;;;;;;;4.41;100.00;103240.41;5069059;28;20044;-31
2022/01/26 03:39:02;;;;;;;43.03;20.90;;;;;;;4.42;100.00;103237.44;5070665;28;20045;-31
2022/01/26 03:41:39;;;;;;;46.00;21.42;;;;;;;4.44;100.00;103228.94;5069764;28;20044;-34
2022/01/26 03:44:09;;;;;;;40.47;19.65;;;;;;;4.44;100.00;103217.88;5069090;28;20413;-30
2022/01/26 03:46:37;;;;;;;40.05;19.70;;;;;;;4.41;100.00;103193.41;5070500;28;20567;-31
2022/01/26 03:49:06;;;;;;;42.80;20.02;;;;;;;4.42;100.00;103175.78;5069918;28;20051;-32
2022/01/26 03:51:35;;;;;;;45.72;20.63;;;;;;;4.43;100.00;103186.63;5069746;28;20044;-31
2022/01/26 03:54:04;;;;;;;41.78;19.48;;;;;;;4.44;100.00;103193.00;5070564;28;20136;-30
2022/01/26 03:56:32;;;;;;;42.38;19.30;;;;;;;4.43;100.00;103185.78;5069359;28;20516;-32
2022/01/26 03:59:00;;;;;;;45.03;20.95;;;;;;;4.44;100.00;103193.00;5070422;28;20366;-30
2022/01/26 04:01:29;;;;;;;48.30;21.25;;;;;;;4.43;100.00;103203.22;5070263;28;20075;-30
2022/01/26 04:03:57;;;;;;;41.78;20.27;;;;;;;4.42;100.00;103198.75;5069716;28;20079;-31
2022/01/26 04:06:25;;;;;;;37.38;17.83;;;;;;;4.42;100.00;103195.13;5070245;28;20048;-31
2022/01/26 04:08:53;;;;;;;43.58;19.55;;;;;;;4.40;100.00;103178.72;5069214;28;20499;-35
2022/01/26 04:11:35;;;;;;;42.85;19.52;;;;;;;4.40;100.00;103173.22;5070510;28;20148;-36
2022/01/26 04:14:06;;;;;;;43.35;19.92;;;;;;;4.37;100.00;103147.91;5070210;28;20408;-31
2022/01/26 04:16:37;;;;;;;40.78;19.25;;;;;;;4.35;100.00;103148.09;5072744;28;20052;-34
2022/01/26 04:19:06;;;;;;;42.28;18.77;;;;;;;4.35;100.00;103153.63;5073801;28;20048;-35
2022/01/26 04:21:54;;;;;;;41.70;19.27;;;;;;;4.35;100.00;103163.84;5073684;28;20040;-34
2022/01/26 04:24:27;;;;;;;35.45;16.95;;;;;;;4.35;100.00;103164.69;5073189;28;20063;-30
2022/01/26 04:27:00;;;;;;;38.38;17.35;;;;;;;4.33;100.00;103164.03;5073755;28;20123;-32
2022/01/26 04:29:30;;;;;;;;;;;;;;;4.30;100.00;103166.34;5073623;28;20060;-31
2022/01/26 04:32:00;;;;;;;39.40;18.15;;;;;;;4.28;100.00;103185.88;5073031;28;19947;-30
2022/01/26 04:34:29;;;;;;;38.90;18.58;;;;;;;4.30;100.00;103197.59;5073532;28;20075;-30
2022/01/26 04:37:02;;;;;;;38.60;18.15;;;;;;;4.29;100.00;103198.66;5072938;28;20045;-31
2022/01/26 04:39:31;;;;;;;37.10;18.20;;;;;;;4.28;100.00;103196.09;5072140;28;20054;-32
2022/01/26 04:42:03;;;;;;;37.72;17.67;;;;;;;4.27;100.00;103183.31;5073282;28;20485;-32
2022/01/26 04:44:40;;;;;;;36.08;16.85;;;;;;;4.26;100.00;103193.50;5072282;28;20037;-30
2022/01/26 04:47:10;;;;;;;35.30;16.73;;;;;;;4.26;100.00;103179.69;5073386;28;20040;-33
2022/01/26 04:49:37;;;;;;;37.38;18.13;;;;;;;4.25;100.00;103175.22;5072904;28;20044;-31
2022/01/26 04:52:05;;;;;;;35.40;16.70;;;;;;;4.24;100.00;103167.13;5071558;28;20052;-32
2022/01/26 04:54:33;;;;;;;36.10;17.17;;;;;;;4.23;100.00;103171.81;5070939;28;20044;-31
2022/01/26 04:57:01;;;;;;;36.78;18.27;;;;;;;4.21;100.00;103173.06;5070500;28;20528;-31
2022/01/26 04:59:28;;;;;;;36.92;18.02;;;;;;;4.18;100.00;103176.25;5070527;28;20044;-31
2022/01/26 05:01:56;;;;;;;38.13;18.20;;;;;;;4.17;100.00;103174.53;5071667;28;20037;-30
2022/01/26 05:04:25;;;;;;;40.80;17.83;;;;;;;4.15;100.00;103166.44;5071484;28;20337;-30
2022/01/26 05:06:53;;;;;;;43.72;19.48;;;;;;;4.15;100.00;103163.69;5070532;28;20055;-30
2022/01/26 05:09:22;;;;;;;39.33;18.42;;;;;;;4.15;100.00;103159.00;5072897;28;20044;-29
2022/01/26 05:11:52;;;;;;;37.95;18.25;;;;;;;4.15;100.00;103155.38;5073135;28;20050;-30
2022/01/26 05:14:20;;;;;;;41.25;19.42;;;;;;;4.16;100.00;103146.03;5072083;28;20045;-30
2022/01/26 05:16:48;;;;;;;41.20;19.38;;;;;;;4.17;100.00;103153.28;5072839;28;20051;-30
2022/01/26 05:19:16;;;;;;;35.97;18.02;;;;;;;4.18;100.00;103149.47;5071765;28;20586;-29
2022/01/26 05:21:45;;;;;;;38.45;19.35;;;;;;;4.19;100.00;103147.56;5072634;28;20044;-31
2022/01/26 05:24:13;;;;;;;36.35;17.73;;;;;;;4.19;100.00;103162.22;5072313;28;20055;-30
2022/01/26 05:26:41;;;;;;;39.08;20.10;;;;;;;4.19;100.00;103164.13;5072012;28;20401;-30
2022/01/26 05:29:13;;;;;;;44.20;21.57;;;;;;;4.18;100.00;103165.19;5072444;28;20048;-30
2022/01/26 05:31:40;;;;;;;41.28;20.48;;;;;;;4.17;100.00;103172.63;5072463;28;20052;-31
2022/01/26 05:34:08;;;;;;;44.25;21.52;;;;;;;4.13;100.00;103166.63;5071436;28;20417;-30
2022/01/26 05:36:36;;;;;;;43.17;20.70;;;;;;;4.13;100.00;103168.53;5072100;28;20101;-30
2022/01/26 05:39:05;;;;;;;42.92;21.08;;;;;;;4.12;100.00;103153.03;5072511;28;20048;-30
2022/01/26 05:41:33;;;;;;;44.85;22.30;;;;;;;4.13;100.00;103157.50;5071626;28;20044;-31
2022/01/26 05:44:01;;;;;;;46.70;22.85;;;;;;;4.13;100.00;103154.72;5072231;28;20508;-31
2022/01/26 05:46:35;;;;;;;49.13;23.63;;;;;;;4.11;100.00;103148.56;5072029;28;20131;-30
2022/01/26 05:49:03;;;;;;;48.63;24.45;;;;;;;4.08;100.00;103147.03;5071069;28;20453;-31
2022/01/26 05:51:33;;;;;;;49.30;23.80;;;;;;;4.05;100.00;103138.28;5072188;28;20421;-34
2022/01/26 05:54:02;;;;;;;48.38;23.15;;;;;;;4.04;100.00;103142.09;5071852;28;20040;-31
2022/01/26 05:56:31;;;;;;;51.25;25.10;;;;;;;4.06;100.00;103140.00;5071144;28;20129;-31
2022/01/26 05:58:59;;;;;;;48.45;21.85;;;;;;;4.06;100.00;103153.81;5071902;28;20044;-36
2022/01/26 06:01:27;;;;;;;42.53;21.23;;;;;;;4.04;100.00;103156.78;5070731;28;20048;-34
2022/01/26 06:03:55;;;;;;;46.97;20.85;;;;;;;4.05;100.00;103146.56;5072003;28;20048;-32
2022/01/26 06:06:23;;;;;;;43.70;22.27;;;;;;;4.05;100.00;103130.84;5071632;28;20051;-31
2022/01/26 06:08:50;;;;;;;41.25;20.02;;;;;;;4.05;100.00;103130.84;5071011;28;20066;-31
2022/01/26 06:11:18;;;;;;;40.65;20.65;;;;;;;4.06;100.00;103154.66;5071638;28;20040;-29
2022/01/26 06:13:48;;;;;;;45.28;23.00;;;;;;;4.07;100.00;103164.66;5071496;28;20055;-30
2022/01/26 06:16:16;;;;;;;45.10;22.42;;;;;;;4.08;100.00;103163.63;5070557;28;20040;-30
2022/01/26 06:18:44;;;;;;;48.20;24.00;;;;;;;4.10;100.00;103178.09;5071824;28;20039;-31
2022/01/26 06:21:12;;;;;;;45.42;21.83;;;;;;;4.12;100.00;103172.38;5071171;28;20036;-33
2022/01/26 06:23:40;;;;;;;53.15;25.15;;;;;;;4.13;100.00;103171.31;5070583;28;20552;-30
2022/01/26 06:26:10;;;;;;;55.83;25.50;;;;;;;4.12;100.00;103175.97;5070095;28;20558;-34
2022/01/26 06:28:38;;;;;;;54.78;24.88;;;;;;;4.15;100.00;103183.03;5071037;28;20512;-32
2022/01/26 06:31:10;;;;;;;57.45;26.55;;;;;;;4.15;100.00;103186.63;5070494;28;20044;-30
2022/01/26 06:33:40;;;;;;;47.40;23.70;;;;;;;4.14;100.00;103187.69;5071449;28;20083;-30
2022/01/26 06:36:12;;;;;;;52.55;24.48;;;;;;;4.14;100.00;103186.84;5071160;28;20096;-31
2022/01/26 06:38:40;;;;;;;49.80;24.10;;;;;;;4.12;100.00;103177.88;5070090;28;20139;-30
2022/01/26 06:41:08;;;;;;;54.70;24.70;;;;;;;4.13;100.00;103183.22;5070341;28;20059;-31
2022/01/26 06:43:44;;;;;;;44.25;21.45;;;;;;;4.11;100.00;103168.75;5070430;28;20056;-31
2022/01/26 06:46:21;;;;;;;46.00;22.33;;;;;;;4.10;100.00;103167.03;5062398;28;20040;-33
2022/01/26 06:49:03;;;;;;;46.45;21.02;;;;;;;4.10;100.00;103172.56;5071131;28;20056;-30
2022/01/26 06:51:31;;;;;;;46.33;22.30;;;;;;;4.10;100.00;103168.94;5062469;28;20044;-33
2022/01/26 06:53:59;;;;;;;48.78;22.75;;;;;;;4.12;100.00;103173.22;5070668;28;20052;-31
2022/01/26 06:56:26;;;;;;;48.70;23.25;;;;;;;4.12;100.00;103175.97;5070424;28;20507;-33
2022/01/26 06:58:54;;;;;;;49.55;23.00;;;;;;;4.17;100.00;103178.16;5070109;28;20052;-30
2022/01/26 07:01:23;;;;;;;51.03;23.63;;;;;;;4.16;100.00;103170.91;5071222;28;20386;-31
2022/01/26 07:03:51;;;;;;;58.65;24.75;;;;;;;4.14;100.00;103171.13;5070645;28;20060;-33
2022/01/26 07:06:19;;;;;;;53.65;24.42;;;;;;;4.14;100.00;103167.50;5069947;28;20048;-30
2022/01/26 07:08:47;;;;;;;39.50;20.20;;;;;;;4.12;100.00;103167.69;5070977;28;20052;-31
2022/01/26 07:11:15;;;;;;;49.42;23.65;;;;;;;4.11;100.00;103173.41;5070689;28;20099;-30
2022/01/26 07:13:44;;;;;;;47.00;22.38;;;;;;;4.09;100.00;103162.56;5069904;28;20045;-31
2022/01/26 07:21:44;;;;;;;47.47;21.75;;;;;;;4.10;100.00;103153.22;5068017;28;20052;-30
2022/01/26 07:24:12;;;;;;;45.42;21.95;;;;;;;4.12;100.00;103153.88;5057368;28;20052;-29
2022/01/26 07:26:39;;;;;;;49.72;22.92;;;;;;;4.13;100.00;103163.03;5068386;28;20053;-32
2022/01/26 07:29:08;;;;;;;53.58;24.55;;;;;;;4.12;100.00;103159.41;5068653;28;20064;-30
2022/01/26 07:31:37;;;;;;;54.53;24.92;;;;;;;4.12;100.00;103164.06;5069924;28;20501;-32
2022/01/26 07:34:06;;;;;;;49.75;22.52;;;;;;;4.13;100.00;103165.78;5064499;28;20582;-32
2022/01/26 07:36:34;;;;;;;53.40;22.98;;;;;;;4.13;100.00;103165.78;5058125;28;20079;-33
2022/01/26 07:39:07;;;;;;;52.22;23.95;;;;;;;4.12;100.00;103169.59;5069325;28;20413;-30
2022/01/26 07:41:35;;;;;;;54.75;25.88;;;;;;;4.12;100.00;103169.59;5066582;28;20131;-30
2022/01/26 07:44:03;;;;;;;48.30;23.02;;;;;;;4.09;100.00;103157.03;5068862;28;20055;-37
2022/01/26 07:46:31;;;;;;;51.08;23.80;;;;;;;4.09;100.00;103164.47;5068983;28;20409;-36
2022/01/26 07:49:00;;;;;;;51.08;24.02;;;;;;;4.09;100.00;103170.00;5067722;28;20095;-33
2022/01/26 07:51:29;;;;;;;46.78;22.02;;;;;;;4.11;100.00;103167.88;5070379;28;20128;-36
2022/01/26 07:53:56;;;;;;;44.08;21.10;;;;;;;4.09;100.00;103170.84;5072512;28;20073;-31
2022/01/26 07:56:24;;;;;;;41.92;19.95;;;;;;;4.11;100.00;103167.88;5073013;28;20041;-32
2022/01/26 07:58:52;;;;;;;43.17;21.30;;;;;;;4.10;100.00;103166.19;5072643;28;20126;-32
2022/01/26 08:01:20;;;;;;;44.55;22.45;;;;;;;4.11;100.00;103168.75;5072835;28;20045;-31
2022/01/26 08:03:48;;;;;;;40.58;20.88;;;;;;;4.11;100.00;103167.88;5063974;28;20075;-34
2022/01/26 08:06:18;;;;;;;46.75;22.27;;;;;;;4.11;100.00;103167.88;5073328;28;20132;-31
2022/01/26 08:08:47;;;;;;;45.95;22.42;;;;;;;4.10;100.00;103163.41;5072189;28;20058;-31
2022/01/26 08:11:14;;;;;;;47.45;21.70;;;;;;;4.10;100.00;103171.72;5072854;28;20048;-31
2022/01/26 08:13:42;;;;;;;40.88;20.55;;;;;;;4.10;100.00;103168.94;5073280;28;20044;-32
2022/01/26 08:16:10;;;;;;;36.50;18.17;;;;;;;4.10;100.00;103171.72;5072547;28;20106;-32
2022/01/26 08:18:38;;;;;;;34.28;17.65;;;;;;;4.11;100.00;103171.50;5073507;28;20040;-32
2022/01/26 08:21:06;;;;;;;37.55;19.42;;;;;;;4.11;100.00;103179.78;5062881;28;20114;-31
2022/01/26 08:23:36;;;;;;;37.10;19.40;;;;;;;4.10;100.00;103174.47;5073263;28;20487;-30
2022/01/26 08:26:05;;;;;;;38.38;18.52;;;;;;;4.08;100.00;103173.81;5073723;28;20045;-30
2022/01/26 08:28:37;;;;;;;35.13;16.63;;;;;;;4.08;100.00;103173.81;5073680;28;20049;-32
2022/01/26 08:31:04;;;;;;;33.70;16.92;;;;;;;4.09;100.00;103184.66;5072923;28;20167;-32
2022/01/26 08:33:33;;;;;;;36.92;18.20;;;;;;;4.10;100.00;103185.53;5073226;28;20070;-29
2022/01/26 08:36:00;;;;;;;38.00;17.77;;;;;;;4.10;100.00;103180.00;5072207;28;20131;-32
2022/01/26 08:38:28;;;;;;;41.67;19.27;;;;;;;4.12;100.00;103183.41;5072022;28;20161;-30
2022/01/26 08:40:56;;;;;;;38.40;19.05;;;;;;;4.13;100.00;103180.47;5073249;28;20119;-32
2022/01/26 08:43:25;;;;;;;42.42;20.33;;;;;;;4.14;100.00;103176.63;5072834;28;20071;-31
2022/01/26 08:45:53;;;;;;;35.15;17.55;;;;;;;4.17;100.00;103175.38;5073087;28;20032;-32
2022/01/26 08:48:22;;;;;;;37.28;18.33;;;;;;;4.19;100.00;103165.00;5072981;28;20041;-32
2022/01/26 08:50:49;;;;;;;37.72;19.45;;;;;;;4.22;100.00;103164.56;5072521;28;20091;-32
2022/01/26 08:53:17;;;;;;;46.42;20.67;;;;;;;4.25;100.00;103157.78;5073255;28;20058;-30
2022/01/26 08:55:45;;;;;;;44.67;20.25;;;;;;;4.25;100.00;103155.88;5071952;28;20112;-31
2022/01/26 08:58:12;;;;;;;39.00;18.70;;;;;;;4.25;100.00;103142.06;5072210;28;20040;-29
2022/01/26 09:00:42;;;;;;;38.10;19.15;;;;;;;4.28;100.00;103152.72;5063361;28;20128;-30
2022/01/26 09:03:16;;;;;;;36.45;18.02;;;;;;;4.30;100.00;103150.59;5073039;28;20057;-30
2022/01/26 09:05:44;;;;;;;35.60;18.95;;;;;;;4.35;100.00;103178.50;5072254;28;20055;-31
2022/01/26 09:08:12;;;;;;;32.88;16.70;;;;;;;4.40;100.00;103183.41;5072663;28;20056;-30
2022/01/26 09:10:40;;;;;;;35.13;18.80;;;;;;;4.43;100.00;103183.88;5072580;28;20044;-32
2022/01/26 09:13:08;;;;;;;34.35;17.00;;;;;;;4.46;100.00;103189.00;5071722;28;20047;-30
2022/01/26 09:15:37;;;;;;;39.83;19.38;;;;;;;4.50;100.00;103172.88;5072666;28;20063;-34
2022/01/26 09:18:08;;;;;;;36.35;17.13;;;;;;;4.54;100.00;103159.50;5072813;28;20051;-31
2022/01/26 09:20:38;;;;;;;36.55;18.45;;;;;;;4.56;100.00;103149.09;5071981;28;20401;-37
2022/01/26 09:23:05;;;;;;;34.17;18.00;;;;;;;4.60;100.00;103150.38;5072520;28;20106;-36
2022/01/26 09:25:35;;;;;;;33.28;16.80;;;;;;;4.64;100.00;103162.72;5071687;28;20544;-30
2022/01/26 09:28:03;;;;;;;29.30;14.73;;;;;;;4.67;100.00;103157.66;5072460;28;20058;-31
2022/01/26 09:30:31;;;;;;;32.53;15.52;;;;;;;4.70;100.00;103160.03;5072608;28;20138;-30
2022/01/26 09:32:59;;;;;;;27.33;14.25;;;;;;;4.76;100.00;103173.03;5071450;28;20066;-31
2022/01/26 09:35:28;;;;;;;28.60;13.52;;;;;;;4.82;100.00;103169.44;5072403;28;20053;-32
2022/01/26 09:37:55;;;;;;;30.77;13.93;;;;;;;4.87;100.00;103162.44;5071942;28;20501;-30
2022/01/26 09:40:24;;;;;;;29.20;14.57;;;;;;;4.90;100.00;103168.44;5071487;28;20076;-31
2022/01/26 09:42:52;;;;;;;31.08;14.70;;;;;;;4.92;100.00;103166.31;5071918;28;20057;-30
2022/01/26 09:45:19;;;;;;;32.15;14.32;;;;;;;4.96;100.00;103173.16;5072235;28;20051;-32
2022/01/26 09:47:47;;;;;;;28.25;15.23;;;;;;;4.98;100.00;103171.03;5071078;28;20047;-32
2022/01/26 09:50:36;;;;;;;30.83;15.15;;;;;;;5.02;100.00;103172.31;5072086;28;20461;-31
2022/01/26 09:53:04;;;;;;;27.10;13.27;;;;;;;5.07;100.00;103168.94;5072181;28;20052;-32
2022/01/26 09:55:32;;;;;;;27.65;14.55;;;;;;;5.10;100.00;103168.53;5071239;28;20484;-32
2022/01/26 09:58:05;;;;;;;27.85;13.68;;;;;;;5.15;100.00;103177.91;5071709;28;20036;-31
2022/01/26 10:00:33;;;;;;;31.63;14.38;;;;;;;5.21;100.00;103187.28;5071018;28;20052;-32
2022/01/26 10:03:06;;;;;;;29.33;14.43;;;;;;;5.26;100.00;103194.97;5071799;28;20098;-32
2022/01/26 10:05:42;;;;;;;27.15;13.63;;;;;;;5.31;100.00;103198.84;5072012;28;20576;-34
2022/01/26 10:08:23;;;;;;;28.08;14.20;;;;;;;5.34;100.00;103190.13;5070921;28;20143;-30
2022/01/26 10:17:09;;;;;;;23.52;10.93;;;;;;;5.43;100.00;103186.09;5071192;28;20448;-31
2022/01/26 10:19:26;;;;;;;18.13;9.88;;;;;;;5.47;100.00;103189.31;5068803;28;20374;-30
2022/01/26 10:21:56;;;;;;;17.35;8.65;;;;;;;5.53;100.00;103182.94;5070580;28;20048;-31
2022/01/26 10:24:28;;;;;;;21.52;10.20;;;;;;;5.57;100.00;103175.94;5071510;28;20408;-31
2022/01/26 10:26:59;;;;;;;20.23;10.40;;;;;;;5.59;100.00;103179.34;5071582;28;20055;-32
2022/01/26 10:29:27;;;;;;;20.88;9.68;;;;;;;5.63;100.00;103179.75;5070403;28;20044;-30
2022/01/26 10:31:56;;;;;;;26.73;12.45;;;;;;;5.65;100.00;103180.41;5071274;28;20047;-30
2022/01/26 10:34:24;;;;;;;20.33;11.23;;;;;;;5.67;100.00;103179.13;5070816;28;20135;-30
2022/01/26 10:36:58;;;;;;;21.85;11.32;;;;;;;5.73;100.00;103186.63;5070328;28;20060;-32
2022/01/26 10:39:31;;;;;;;26.25;11.63;;;;;;;5.78;100.00;103188.75;5071259;28;20084;-32
2022/01/26 10:42:03;;;;;;;22.58;11.98;;;;;;;5.80;100.00;103184.69;5071096;28;20044;-30
2022/01/26 10:44:37;;;;;;;26.35;12.85;;;;;;;5.83;100.00;103169.56;5070324;28;20123;-32
2022/01/26 10:47:06;;;;;;;27.80;12.70;;;;;;;5.85;100.00;103159.13;5070995;28;20058;-31
2022/01/26 10:49:56;;;;;;;21.85;11.23;;;;;;;5.86;100.00;103158.91;5070647;28;20083;-31
2022/01/26 10:52:33;;;;;;;24.20;12.88;;;;;;;5.88;100.00;103155.94;5070795;28;20481;-30
2022/01/26 10:55:03;;;;;;;25.67;13.60;;;;;;;5.88;100.00;103151.28;5070947;28;20556;-34
2022/01/26 10:57:31;;;;;;;26.60;13.60;;;;;;;5.91;100.00;103146.38;5070120;28;20102;-37
2022/01/26 10:59:59;;;;;;;27.48;13.48;;;;;;;5.93;100.00;103142.34;5071051;28;20391;-36
2022/01/26 11:02:30;;;;;;;26.42;12.75;;;;;;;5.98;100.00;103144.47;5070471;28;20127;-33
2022/01/26 11:04:58;;;;;;;21.13;9.60;;;;;;;6.01;100.00;103135.72;5070242;28;20058;-31
2022/01/26 11:07:33;;;;;;;18.13;8.43;;;;;;;6.04;100.00;103141.69;5070631;28;20487;-37
2022/01/26 11:10:03;;;;;;;22.08;9.05;;;;;;;6.07;100.00;103137.66;5061733;28;20056;-32
2022/01/26 11:12:32;;;;;;;18.40;8.80;;;;;;;6.10;100.00;103140.00;5070114;28;20055;-34
2022/01/26 11:15:06;;;;;;;16.27;8.50;;;;;;;6.14;100.00;103139.34;5070774;28;20048;-38
2022/01/26 11:17:36;;;;;;;18.98;9.10;;;;;;;6.16;100.00;103141.91;5070410;28;20051;-31
2022/01/26 11:20:19;;;;;;;19.17;9.32;;;;;;;6.19;100.00;103124.88;5069910;28;20144;-32
2022/01/26 11:22:53;;;;;;;17.30;9.23;;;;;;;6.19;100.00;103122.09;5070588;28;20482;-31
2022/01/26 11:25:22;;;;;;;19.23;9.23;;;;;;;6.21;100.00;103125.47;5073030;28;20053;-33
2022/01/26 11:27:51;;;;;;;19.60;9.02;;;;;;;6.25;100.00;103129.53;5075013;28;20066;-29
2022/01/26 11:30:21;;;;;;;19.00;8.80;;;;;;;6.29;100.00;103133.59;5073256;28;20052;-30
2022/01/26 11:32:55;;;;;;;15.48;7.95;;;;;;;6.28;100.00;103120.78;5073382;28;20484;-30
2022/01/26 11:35:28;;;;;;;16.60;7.63;;;;;;;6.31;100.00;103123.13;5074689;28;20060;-30
2022/01/26 11:38:05;;;;;;;;;;;;;;;6.29;100.00;103132.72;5075127;28;20045;-30
2022/01/26 11:46:27;;;;;;;17.52;8.15;;;;;;;6.36;100.00;103134.44;5066655;28;20045;-30
2022/01/26 11:49:05;;;;;;;20.20;8.48;;;;;;;6.38;100.00;103123.13;5073917;28;20518;-33
2022/01/26 11:51:43;;;;;;;16.75;8.35;;;;;;;6.40;100.00;103123.75;5074187;28;20047;-32
2022/01/26 11:54:16;;;;;;;19.98;8.73;;;;;;;6.40;100.00;103127.38;5073589;28;20052;-31
2022/01/26 11:56:54;;;;;;;;;;;;;;;6.36;100.00;103120.56;5074706;28;20519;-32
2022/01/26 11:59:26;;;;;;;20.10;8.68;;;;;;;6.35;100.00;103129.09;5074121;28;19920;-31
2022/01/26 12:01:59;;;;;;;18.40;8.83;;;;;;;6.36;100.00;103120.56;5073065;28;20063;-33
2022/01/26 12:04:31;;;;;;;24.20;11.93;;;;;;;6.38;100.00;103115.66;5074182;28;20066;-30
2022/01/26 12:07:10;;;;;;;27.65;12.70;;;;;;;6.40;100.00;103104.31;5073893;28;20048;-30
2022/01/26 12:09:41;;;;;;;26.75;12.38;;;;;;;6.45;100.00;103101.75;5073882;28;20057;-30
2022/01/26 12:12:17;;;;;;;26.13;11.90;;;;;;;6.50;100.00;103097.28;5073670;28;20064;-31
2022/01/26 12:14:55;;;;;;;23.50;12.10;;;;;;;6.54;100.00;103095.78;5073221;28;20878;-31
2022/01/26 12:17:28;;;;;;;24.90;11.73;;;;;;;6.59;100.00;103091.50;5065908;28;20045;-31
2022/01/26 12:31:59;;;;;;;;;;;;;;;6.60;100.00;103087.63;5074208;28;20045;-32
2022/01/26 12:34:42;;;;;;;27.40;12.75;;;;;;;6.75;100.00;103085.47;5073376;28;20499;-33
2022/01/26 12:37:16;;;;;;;25.55;12.02;;;;;;;6.77;100.00;103078.63;5071812;28;20056;-38
2022/01/26 12:42:55;;;;;;;21.70;10.80;;;;;;;6.79;100.00;103076.50;5072530;28;20442;-31
2022/01/26 12:45:45;;;;;;;25.38;12.05;;;;;;;6.80;100.00;103072.63;5073238;28;20041;-33
2022/01/26 12:48:13;;;;;;;31.45;13.82;;;;;;;6.84;100.00;103073.03;5073106;28;20147;-33
2022/01/26 12:50:41;;;;;;;31.48;15.30;;;;;;;6.87;100.00;103069.81;5072378;28;20044;-31
2022/01/26 12:53:09;;;;;;;25.25;12.85;;;;;;;6.87;100.00;103070.69;5073021;28;20045;-32
2022/01/26 12:55:39;;;;;;;28.08;14.30;;;;;;;6.89;100.00;103067.69;5072914;28;20431;-29